sensor_id;sensor_type;location;lat;lon;timestamp;P1;durP1;ratioP1;P2;durP2;ratioP2
23634;SDS011;11994;51.038;16.974;2023-03-22T00:00:27;43.10;;;33.90;;
23634;SDS011;11994;51.038;16.974;2023-03-22T00:02:56;44.70;;;32.90;;
23634;SDS011;11994;51.038;16.974;2023-03-22T00:05:21;43.40;;;32.00;;
23634;SDS011;11994;51.038;16.974;2023-03-22T00:07:46;42.50;;;33.00;;
23634;SDS011;11994;51.038;16.974;2023-03-22T00:10:14;44.50;;;33.60;;
23634;SDS011;11994;51.038;16.974;2023-03-22T00:12:41;43.00;;;34.30;;
23634;SDS011;11994;51.038;16.974;2023-03-22T00:15:07;45.40;;;34.60;;
23634;SDS011;11994;51.038;16.974;2023-03-22T00:17:33;41.00;;;31.50;;
23634;SDS011;11994;51.038;16.974;2023-03-22T00:20:00;40.80;;;30.20;;
23634;SDS011;11994;51.038;16.974;2023-03-22T00:22:30;39.90;;;31.40;;
23634;SDS011;11994;51.038;16.974;2023-03-22T00:24:56;43.70;;;32.40;;
23634;SDS011;11994;51.038;16.974;2023-03-22T00:27:22;41.40;;;32.60;;
23634;SDS011;11994;51.038;16.974;2023-03-22T00:29:47;43.00;;;31.40;;
23634;SDS011;11994;51.038;16.974;2023-03-22T00:32:12;40.90;;;30.70;;
23634;SDS011;11994;51.038;16.974;2023-03-22T00:34:38;44.10;;;36.30;;
23634;SDS011;11994;51.038;16.974;2023-03-22T00:37:03;44.50;;;36.20;;
23634;SDS011;11994;51.038;16.974;2023-03-22T00:39:28;43.20;;;33.50;;
23634;SDS011;11994;51.038;16.974;2023-03-22T00:41:54;40.10;;;29.80;;
23634;SDS011;11994;51.038;16.974;2023-03-22T00:44:19;38.90;;;29.70;;
23634;SDS011;11994;51.038;16.974;2023-03-22T00:46:45;39.40;;;30.50;;
23634;SDS011;11994;51.038;16.974;2023-03-22T00:49:10;41.10;;;31.30;;
23634;SDS011;11994;51.038;16.974;2023-03-22T00:51:36;40.90;;;31.60;;
23634;SDS011;11994;51.038;16.974;2023-03-22T00:54:01;40.80;;;30.20;;
23634;SDS011;11994;51.038;16.974;2023-03-22T00:56:27;38.40;;;29.40;;
23634;SDS011;11994;51.038;16.974;2023-03-22T00:58:52;39.40;;;30.20;;
23634;SDS011;11994;51.038;16.974;2023-03-22T01:01:18;39.90;;;30.20;;
23634;SDS011;11994;51.038;16.974;2023-03-22T01:03:44;40.40;;;31.10;;
23634;SDS011;11994;51.038;16.974;2023-03-22T01:06:09;37.70;;;28.60;;
23634;SDS011;11994;51.038;16.974;2023-03-22T01:08:35;37.40;;;28.80;;
23634;SDS011;11994;51.038;16.974;2023-03-22T01:11:02;34.50;;;28.60;;
23634;SDS011;11994;51.038;16.974;2023-03-22T01:13:28;37.30;;;29.90;;
23634;SDS011;11994;51.038;16.974;2023-03-22T01:15:53;41.00;;;31.20;;
23634;SDS011;11994;51.038;16.974;2023-03-22T01:18:19;37.50;;;28.10;;
23634;SDS011;11994;51.038;16.974;2023-03-22T01:20:44;34.80;;;27.20;;
23634;SDS011;11994;51.038;16.974;2023-03-22T01:23:10;35.50;;;27.90;;
23634;SDS011;11994;51.038;16.974;2023-03-22T01:25:35;40.50;;;30.40;;
23634;SDS011;11994;51.038;16.974;2023-03-22T01:28:00;40.30;;;30.60;;
23634;SDS011;11994;51.038;16.974;2023-03-22T01:30:27;36.60;;;28.80;;
23634;SDS011;11994;51.038;16.974;2023-03-22T01:32:52;35.80;;;26.00;;
23634;SDS011;11994;51.038;16.974;2023-03-22T01:35:18;37.80;;;28.00;;
23634;SDS011;11994;51.038;16.974;2023-03-22T01:37:44;37.70;;;28.50;;
23634;SDS011;11994;51.038;16.974;2023-03-22T01:40:10;37.90;;;30.10;;
23634;SDS011;11994;51.038;16.974;2023-03-22T01:42:36;41.10;;;30.00;;
23634;SDS011;11994;51.038;16.974;2023-03-22T01:47:44;35.60;;;27.00;;
23634;SDS011;11994;51.038;16.974;2023-03-22T01:50:13;34.10;;;26.80;;
23634;SDS011;11994;51.038;16.974;2023-03-22T01:52:41;36.30;;;28.20;;
23634;SDS011;11994;51.038;16.974;2023-03-22T01:55:07;37.20;;;29.90;;
23634;SDS011;11994;51.038;16.974;2023-03-22T01:57:33;41.00;;;31.10;;
23634;SDS011;11994;51.038;16.974;2023-03-22T02:00:03;36.40;;;28.50;;
23634;SDS011;11994;51.038;16.974;2023-03-22T02:02:34;30.90;;;26.20;;
23634;SDS011;11994;51.038;16.974;2023-03-22T02:04:59;33.70;;;26.30;;
23634;SDS011;11994;51.038;16.974;2023-03-22T02:07:25;37.10;;;28.50;;
23634;SDS011;11994;51.038;16.974;2023-03-22T02:09:51;39.20;;;28.40;;
23634;SDS011;11994;51.038;16.974;2023-03-22T02:15:28;37.50;;;29.50;;
23634;SDS011;11994;51.038;16.974;2023-03-22T02:32:40;36.90;;;28.60;;
23634;SDS011;11994;51.038;16.974;2023-03-22T02:46:09;59.10;;;43.30;;
23634;SDS011;11994;51.038;16.974;2023-03-22T02:48:51;45.10;;;34.00;;
23634;SDS011;11994;51.038;16.974;2023-03-22T02:51:42;41.50;;;30.70;;
23634;SDS011;11994;51.038;16.974;2023-03-22T02:54:12;37.30;;;29.60;;
23634;SDS011;11994;51.038;16.974;2023-03-22T02:56:52;37.90;;;30.30;;
23634;SDS011;11994;51.038;16.974;2023-03-22T02:59:25;41.30;;;32.10;;
23634;SDS011;11994;51.038;16.974;2023-03-22T03:01:54;37.50;;;30.20;;
23634;SDS011;11994;51.038;16.974;2023-03-22T03:04:33;36.50;;;28.20;;
23634;SDS011;11994;51.038;16.974;2023-03-22T03:07:03;36.70;;;29.00;;
23634;SDS011;11994;51.038;16.974;2023-03-22T03:09:33;36.50;;;29.40;;
23634;SDS011;11994;51.038;16.974;2023-03-22T03:12:00;41.00;;;31.90;;
23634;SDS011;11994;51.038;16.974;2023-03-22T03:14:26;41.30;;;30.90;;
23634;SDS011;11994;51.038;16.974;2023-03-22T03:16:58;39.40;;;31.70;;
23634;SDS011;11994;51.038;16.974;2023-03-22T03:22:54;32.50;;;26.40;;
23634;SDS011;11994;51.038;16.974;2023-03-22T03:25:36;35.10;;;26.40;;
23634;SDS011;11994;51.038;16.974;2023-03-22T03:28:10;35.20;;;27.70;;
23634;SDS011;11994;51.038;16.974;2023-03-22T03:34:14;33.80;;;28.00;;
23634;SDS011;11994;51.038;16.974;2023-03-22T03:37:12;32.30;;;25.50;;
23634;SDS011;11994;51.038;16.974;2023-03-22T03:39:40;32.10;;;25.00;;
23634;SDS011;11994;51.038;16.974;2023-03-22T03:42:14;35.90;;;26.00;;
23634;SDS011;11994;51.038;16.974;2023-03-22T03:44:40;36.10;;;27.40;;
23634;SDS011;11994;51.038;16.974;2023-03-22T03:47:07;35.50;;;28.50;;
23634;SDS011;11994;51.038;16.974;2023-03-22T03:49:34;36.10;;;28.30;;
23634;SDS011;11994;51.038;16.974;2023-03-22T03:52:00;38.20;;;29.50;;
23634;SDS011;11994;51.038;16.974;2023-03-22T03:54:27;34.60;;;27.60;;
23634;SDS011;11994;51.038;16.974;2023-03-22T03:56:53;33.20;;;25.50;;
23634;SDS011;11994;51.038;16.974;2023-03-22T03:59:18;31.60;;;26.20;;
23634;SDS011;11994;51.038;16.974;2023-03-22T04:01:45;32.10;;;26.50;;
23634;SDS011;11994;51.038;16.974;2023-03-22T04:04:16;31.60;;;26.10;;
23634;SDS011;11994;51.038;16.974;2023-03-22T04:06:50;35.00;;;29.20;;
23634;SDS011;11994;51.038;16.974;2023-03-22T04:09:16;35.60;;;28.10;;
23634;SDS011;11994;51.038;16.974;2023-03-22T04:11:42;35.30;;;26.40;;
23634;SDS011;11994;51.038;16.974;2023-03-22T04:14:07;30.60;;;25.30;;
23634;SDS011;11994;51.038;16.974;2023-03-22T04:16:33;34.90;;;25.50;;
23634;SDS011;11994;51.038;16.974;2023-03-22T04:18:58;35.10;;;26.70;;
23634;SDS011;11994;51.038;16.974;2023-03-22T04:21:24;35.20;;;27.70;;
23634;SDS011;11994;51.038;16.974;2023-03-22T04:23:49;35.80;;;27.60;;
23634;SDS011;11994;51.038;16.974;2023-03-22T04:26:15;36.40;;;26.60;;
23634;SDS011;11994;51.038;16.974;2023-03-22T04:28:40;33.10;;;26.00;;
23634;SDS011;11994;51.038;16.974;2023-03-22T04:31:06;34.00;;;27.50;;
23634;SDS011;11994;51.038;16.974;2023-03-22T04:33:32;36.40;;;27.00;;
23634;SDS011;11994;51.038;16.974;2023-03-22T04:36:03;34.80;;;28.10;;
23634;SDS011;11994;51.038;16.974;2023-03-22T04:38:31;35.10;;;28.10;;
23634;SDS011;11994;51.038;16.974;2023-03-22T04:40:56;32.20;;;25.60;;
23634;SDS011;11994;51.038;16.974;2023-03-22T04:43:22;32.00;;;25.20;;
23634;SDS011;11994;51.038;16.974;2023-03-22T04:45:48;31.40;;;25.50;;
23634;SDS011;11994;51.038;16.974;2023-03-22T04:48:13;33.60;;;26.60;;
23634;SDS011;11994;51.038;16.974;2023-03-22T04:50:39;35.00;;;27.50;;
23634;SDS011;11994;51.038;16.974;2023-03-22T04:53:05;35.00;;;28.10;;
23634;SDS011;11994;51.038;16.974;2023-03-22T04:55:31;32.90;;;26.10;;
23634;SDS011;11994;51.038;16.974;2023-03-22T04:57:58;32.70;;;25.30;;
23634;SDS011;11994;51.038;16.974;2023-03-22T05:00:23;33.20;;;23.80;;
23634;SDS011;11994;51.038;16.974;2023-03-22T05:02:49;31.20;;;24.80;;
23634;SDS011;11994;51.038;16.974;2023-03-22T05:05:15;35.40;;;26.40;;
23634;SDS011;11994;51.038;16.974;2023-03-22T05:07:40;37.90;;;28.10;;
23634;SDS011;11994;51.038;16.974;2023-03-22T05:10:05;35.50;;;27.60;;
23634;SDS011;11994;51.038;16.974;2023-03-22T05:12:31;35.50;;;25.70;;
23634;SDS011;11994;51.038;16.974;2023-03-22T05:14:57;31.90;;;24.40;;
23634;SDS011;11994;51.038;16.974;2023-03-22T05:17:25;33.20;;;24.90;;
23634;SDS011;11994;51.038;16.974;2023-03-22T05:19:50;31.80;;;26.00;;
23634;SDS011;11994;51.038;16.974;2023-03-22T05:22:16;34.00;;;27.50;;
23634;SDS011;11994;51.038;16.974;2023-03-22T05:24:43;34.60;;;28.40;;
23634;SDS011;11994;51.038;16.974;2023-03-22T05:27:08;32.60;;;25.80;;
23634;SDS011;11994;51.038;16.974;2023-03-22T05:29:34;33.80;;;25.50;;
23634;SDS011;11994;51.038;16.974;2023-03-22T05:32:00;35.50;;;26.20;;
23634;SDS011;11994;51.038;16.974;2023-03-22T05:34:27;36.30;;;27.30;;
23634;SDS011;11994;51.038;16.974;2023-03-22T05:36:59;36.10;;;26.70;;
23634;SDS011;11994;51.038;16.974;2023-03-22T05:39:25;34.80;;;27.20;;
23634;SDS011;11994;51.038;16.974;2023-03-22T05:41:50;31.20;;;25.70;;
23634;SDS011;11994;51.038;16.974;2023-03-22T05:44:16;33.40;;;26.70;;
23634;SDS011;11994;51.038;16.974;2023-03-22T05:46:41;34.70;;;26.30;;
23634;SDS011;11994;51.038;16.974;2023-03-22T05:49:06;35.60;;;26.50;;
23634;SDS011;11994;51.038;16.974;2023-03-22T05:51:32;34.70;;;27.60;;
23634;SDS011;11994;51.038;16.974;2023-03-22T05:53:57;38.40;;;29.20;;
23634;SDS011;11994;51.038;16.974;2023-03-22T05:56:23;35.70;;;27.00;;
23634;SDS011;11994;51.038;16.974;2023-03-22T05:58:48;33.60;;;26.50;;
23634;SDS011;11994;51.038;16.974;2023-03-22T06:01:14;32.10;;;25.10;;
23634;SDS011;11994;51.038;16.974;2023-03-22T06:03:40;34.60;;;27.50;;
23634;SDS011;11994;51.038;16.974;2023-03-22T06:06:06;32.20;;;26.90;;
23634;SDS011;11994;51.038;16.974;2023-03-22T06:08:35;36.40;;;29.00;;
23634;SDS011;11994;51.038;16.974;2023-03-22T06:11:01;33.70;;;27.80;;
23634;SDS011;11994;51.038;16.974;2023-03-22T06:13:27;38.30;;;27.40;;
23634;SDS011;11994;51.038;16.974;2023-03-22T06:15:53;33.80;;;25.90;;
23634;SDS011;11994;51.038;16.974;2023-03-22T06:18:18;32.30;;;25.20;;
23634;SDS011;11994;51.038;16.974;2023-03-22T06:20:44;32.80;;;25.90;;
23634;SDS011;11994;51.038;16.974;2023-03-22T06:23:09;35.30;;;26.70;;
23634;SDS011;11994;51.038;16.974;2023-03-22T06:25:35;35.10;;;27.10;;
23634;SDS011;11994;51.038;16.974;2023-03-22T06:28:00;35.60;;;29.60;;
23634;SDS011;11994;51.038;16.974;2023-03-22T06:30:26;35.50;;;28.50;;
23634;SDS011;11994;51.038;16.974;2023-03-22T06:32:51;29.60;;;24.80;;
23634;SDS011;11994;51.038;16.974;2023-03-22T06:35:17;30.40;;;24.50;;
23634;SDS011;11994;51.038;16.974;2023-03-22T06:37:43;33.40;;;25.50;;
23634;SDS011;11994;51.038;16.974;2023-03-22T06:40:08;32.20;;;27.10;;
23634;SDS011;11994;51.038;16.974;2023-03-22T06:42:34;34.20;;;28.80;;
23634;SDS011;11994;51.038;16.974;2023-03-22T06:45:00;33.00;;;28.50;;
23634;SDS011;11994;51.038;16.974;2023-03-22T06:47:26;33.20;;;27.10;;
23634;SDS011;11994;51.038;16.974;2023-03-22T06:49:52;34.30;;;25.60;;
23634;SDS011;11994;51.038;16.974;2023-03-22T06:52:18;33.10;;;26.30;;
23634;SDS011;11994;51.038;16.974;2023-03-22T06:54:45;30.90;;;26.30;;
23634;SDS011;11994;51.038;16.974;2023-03-22T06:57:10;33.50;;;28.20;;
23634;SDS011;11994;51.038;16.974;2023-03-22T06:59:36;35.90;;;28.20;;
23634;SDS011;11994;51.038;16.974;2023-03-22T07:02:01;32.00;;;26.10;;
23634;SDS011;11994;51.038;16.974;2023-03-22T07:04:27;33.40;;;25.70;;
23634;SDS011;11994;51.038;16.974;2023-03-22T07:06:53;28.40;;;25.00;;
23634;SDS011;11994;51.038;16.974;2023-03-22T07:09:18;30.20;;;26.20;;
23634;SDS011;11994;51.038;16.974;2023-03-22T07:11:44;31.10;;;27.10;;
23634;SDS011;11994;51.038;16.974;2023-03-22T07:14:09;34.50;;;28.30;;
23634;SDS011;11994;51.038;16.974;2023-03-22T07:16:35;30.60;;;25.80;;
23634;SDS011;11994;51.038;16.974;2023-03-22T07:19:00;29.00;;;25.10;;
23634;SDS011;11994;51.038;16.974;2023-03-22T07:21:25;28.30;;;24.50;;
23634;SDS011;11994;51.038;16.974;2023-03-22T07:23:51;28.90;;;25.70;;
23634;SDS011;11994;51.038;16.974;2023-03-22T07:26:16;33.80;;;26.20;;
23634;SDS011;11994;51.038;16.974;2023-03-22T07:28:42;32.00;;;27.10;;
23634;SDS011;11994;51.038;16.974;2023-03-22T07:31:09;33.10;;;26.00;;
23634;SDS011;11994;51.038;16.974;2023-03-22T07:33:36;32.80;;;24.80;;
23634;SDS011;11994;51.038;16.974;2023-03-22T07:36:03;27.20;;;24.00;;
23634;SDS011;11994;51.038;16.974;2023-03-22T07:38:29;27.90;;;24.90;;
23634;SDS011;11994;51.038;16.974;2023-03-22T07:40:54;29.40;;;25.80;;
23634;SDS011;11994;51.038;16.974;2023-03-22T07:43:20;30.20;;;26.40;;
23634;SDS011;11994;51.038;16.974;2023-03-22T07:45:50;28.90;;;25.70;;
23634;SDS011;11994;51.038;16.974;2023-03-22T07:48:16;26.20;;;23.30;;
23634;SDS011;11994;51.038;16.974;2023-03-22T07:50:45;27.70;;;23.20;;
23634;SDS011;11994;51.038;16.974;2023-03-22T07:53:11;26.40;;;22.30;;
23634;SDS011;11994;51.038;16.974;2023-03-22T07:55:37;27.00;;;23.80;;
23634;SDS011;11994;51.038;16.974;2023-03-22T07:58:04;27.50;;;23.90;;
23634;SDS011;11994;51.038;16.974;2023-03-22T08:00:30;27.70;;;24.70;;
23634;SDS011;11994;51.038;16.974;2023-03-22T08:02:56;27.50;;;24.50;;
23634;SDS011;11994;51.038;16.974;2023-03-22T08:05:21;28.00;;;25.00;;
23634;SDS011;11994;51.038;16.974;2023-03-22T08:07:48;25.70;;;22.80;;
23634;SDS011;11994;51.038;16.974;2023-03-22T08:10:13;28.50;;;22.30;;
23634;SDS011;11994;51.038;16.974;2023-03-22T08:12:39;23.50;;;21.20;;
23634;SDS011;11994;51.038;16.974;2023-03-22T08:15:05;25.30;;;22.50;;
23634;SDS011;11994;51.038;16.974;2023-03-22T08:17:31;28.40;;;23.70;;
23634;SDS011;11994;51.038;16.974;2023-03-22T08:19:57;26.20;;;23.50;;
23634;SDS011;11994;51.038;16.974;2023-03-22T08:22:22;25.60;;;23.00;;
23634;SDS011;11994;51.038;16.974;2023-03-22T08:24:52;25.60;;;23.00;;
23634;SDS011;11994;51.038;16.974;2023-03-22T08:27:18;25.30;;;22.80;;
23634;SDS011;11994;51.038;16.974;2023-03-22T08:29:44;27.30;;;24.40;;
23634;SDS011;11994;51.038;16.974;2023-03-22T08:32:11;28.40;;;22.70;;
23634;SDS011;11994;51.038;16.974;2023-03-22T08:34:37;23.30;;;20.90;;
23634;SDS011;11994;51.038;16.974;2023-03-22T08:37:04;22.10;;;19.80;;
23634;SDS011;11994;51.038;16.974;2023-03-22T08:39:31;23.60;;;21.20;;
23634;SDS011;11994;51.038;16.974;2023-03-22T08:41:57;27.60;;;21.30;;
23634;SDS011;11994;51.038;16.974;2023-03-22T08:44:22;24.60;;;22.00;;
23634;SDS011;11994;51.038;16.974;2023-03-22T08:46:48;23.20;;;20.60;;
23634;SDS011;11994;51.038;16.974;2023-03-22T08:49:13;24.00;;;21.40;;
23634;SDS011;11994;51.038;16.974;2023-03-22T08:51:39;25.90;;;23.10;;
23634;SDS011;11994;51.038;16.974;2023-03-22T08:54:05;23.60;;;21.10;;
23634;SDS011;11994;51.038;16.974;2023-03-22T08:56:30;23.20;;;19.90;;
23634;SDS011;11994;51.038;16.974;2023-03-22T08:58:57;24.00;;;20.10;;
23634;SDS011;11994;51.038;16.974;2023-03-22T09:01:22;22.50;;;20.20;;
23634;SDS011;11994;51.038;16.974;2023-03-22T09:03:49;22.20;;;19.10;;
23634;SDS011;11994;51.038;16.974;2023-03-22T09:06:14;24.10;;;18.80;;
23634;SDS011;11994;51.038;16.974;2023-03-22T09:08:40;21.10;;;18.90;;
23634;SDS011;11994;51.038;16.974;2023-03-22T09:11:09;23.10;;;20.60;;
23634;SDS011;11994;51.038;16.974;2023-03-22T09:13:35;21.00;;;18.80;;
23634;SDS011;11994;51.038;16.974;2023-03-22T09:16:01;22.30;;;19.30;;
23634;SDS011;11994;51.038;16.974;2023-03-22T09:18:27;21.60;;;17.90;;
23634;SDS011;11994;51.038;16.974;2023-03-22T09:20:53;21.00;;;18.50;;
23634;SDS011;11994;51.038;16.974;2023-03-22T09:23:19;20.20;;;17.60;;
23634;SDS011;11994;51.038;16.974;2023-03-22T09:25:45;18.20;;;16.30;;
23634;SDS011;11994;51.038;16.974;2023-03-22T09:28:11;20.00;;;17.40;;
23634;SDS011;11994;51.038;16.974;2023-03-22T09:30:36;19.50;;;16.70;;
23634;SDS011;11994;51.038;16.974;2023-03-22T09:33:02;17.40;;;15.30;;
23634;SDS011;11994;51.038;16.974;2023-03-22T09:35:28;17.90;;;16.10;;
23634;SDS011;11994;51.038;16.974;2023-03-22T09:37:53;19.80;;;15.50;;
23634;SDS011;11994;51.038;16.974;2023-03-22T09:40:24;19.50;;;15.70;;
23634;SDS011;11994;51.038;16.974;2023-03-22T09:42:53;18.30;;;14.20;;
23634;SDS011;11994;51.038;16.974;2023-03-22T09:45:22;8.90;;;7.90;;
23634;SDS011;11994;51.038;16.974;2023-03-22T09:48:02;11.50;;;10.20;;
23634;SDS011;11994;51.038;16.974;2023-03-22T09:50:31;15.10;;;12.70;;
23634;SDS011;11994;51.038;16.974;2023-03-22T09:52:59;14.40;;;12.90;;
23634;SDS011;11994;51.038;16.974;2023-03-22T09:55:45;18.70;;;13.30;;
23634;SDS011;11994;51.038;16.974;2023-03-22T09:58:32;22.20;;;13.80;;
23634;SDS011;11994;51.038;16.974;2023-03-22T10:01:26;16.70;;;15.10;;
23634;SDS011;11994;51.038;16.974;2023-03-22T10:06:43;19.80;;;16.70;;
23634;SDS011;11994;51.038;16.974;2023-03-22T10:14:41;19.90;;;16.50;;
23634;SDS011;11994;51.038;16.974;2023-03-22T10:17:25;16.40;;;14.40;;
23634;SDS011;11994;51.038;16.974;2023-03-22T10:22:51;16.80;;;13.20;;
23634;SDS011;11994;51.038;16.974;2023-03-22T10:25:21;16.30;;;13.80;;
23634;SDS011;11994;51.038;16.974;2023-03-22T10:27:56;15.20;;;13.60;;
23634;SDS011;11994;51.038;16.974;2023-03-22T10:30:23;14.60;;;13.10;;
23634;SDS011;11994;51.038;16.974;2023-03-22T10:32:54;15.90;;;13.20;;
23634;SDS011;11994;51.038;16.974;2023-03-22T10:35:25;15.00;;;13.40;;
23634;SDS011;11994;51.038;16.974;2023-03-22T10:37:52;15.40;;;13.30;;
23634;SDS011;11994;51.038;16.974;2023-03-22T10:40:23;16.10;;;13.70;;
23634;SDS011;11994;51.038;16.974;2023-03-22T10:42:56;15.60;;;13.90;;
23634;SDS011;11994;51.038;16.974;2023-03-22T10:45:27;14.80;;;13.40;;
23634;SDS011;11994;51.038;16.974;2023-03-22T10:47:58;18.90;;;14.00;;
23634;SDS011;11994;51.038;16.974;2023-03-22T10:50:29;17.00;;;15.20;;
23634;SDS011;11994;51.038;16.974;2023-03-22T10:53:10;16.30;;;14.20;;
23634;SDS011;11994;51.038;16.974;2023-03-22T10:55:55;16.70;;;14.00;;
23634;SDS011;11994;51.038;16.974;2023-03-22T10:58:22;16.70;;;13.80;;
23634;SDS011;11994;51.038;16.974;2023-03-22T11:00:57;16.30;;;14.40;;
23634;SDS011;11994;51.038;16.974;2023-03-22T11:06:07;15.80;;;14.20;;
23634;SDS011;11994;51.038;16.974;2023-03-22T11:08:44;16.50;;;14.70;;
23634;SDS011;11994;51.038;16.974;2023-03-22T11:11:13;16.40;;;14.70;;
23634;SDS011;11994;51.038;16.974;2023-03-22T11:13:42;16.20;;;14.60;;
23634;SDS011;11994;51.038;16.974;2023-03-22T11:16:12;16.10;;;14.40;;
23634;SDS011;11994;51.038;16.974;2023-03-22T11:18:41;17.20;;;14.80;;
23634;SDS011;11994;51.038;16.974;2023-03-22T11:21:11;17.20;;;14.70;;
23634;SDS011;11994;51.038;16.974;2023-03-22T11:28:34;16.60;;;14.80;;
23634;SDS011;11994;51.038;16.974;2023-03-22T11:33:59;13.80;;;12.30;;
23634;SDS011;11994;51.038;16.974;2023-03-22T11:36:25;14.00;;;12.50;;
23634;SDS011;11994;51.038;16.974;2023-03-22T11:38:58;14.40;;;12.20;;
23634;SDS011;11994;51.038;16.974;2023-03-22T11:41:25;14.00;;;12.40;;
23634;SDS011;11994;51.038;16.974;2023-03-22T11:43:54;16.10;;;12.60;;
23634;SDS011;11994;51.038;16.974;2023-03-22T11:47:02;14.20;;;12.40;;
23634;SDS011;11994;51.038;16.974;2023-03-22T11:49:33;13.70;;;12.20;;
23634;SDS011;11994;51.038;16.974;2023-03-22T11:52:07;15.00;;;12.90;;
23634;SDS011;11994;51.038;16.974;2023-03-22T11:54:36;15.30;;;13.40;;
23634;SDS011;11994;51.038;16.974;2023-03-22T11:57:03;13.30;;;11.60;;
23634;SDS011;11994;51.038;16.974;2023-03-22T12:04:40;15.00;;;12.80;;
23634;SDS011;11994;51.038;16.974;2023-03-22T12:07:12;15.60;;;14.00;;
23634;SDS011;11994;51.038;16.974;2023-03-22T12:09:43;14.10;;;12.20;;
23634;SDS011;11994;51.038;16.974;2023-03-22T12:12:37;12.80;;;11.00;;
23634;SDS011;11994;51.038;16.974;2023-03-22T12:17:44;8.10;;;6.60;;
23634;SDS011;11994;51.038;16.974;2023-03-22T12:23:19;7.60;;;6.70;;
23634;SDS011;11994;51.038;16.974;2023-03-22T12:25:49;8.40;;;7.10;;
23634;SDS011;11994;51.038;16.974;2023-03-22T12:28:21;7.50;;;6.50;;
23634;SDS011;11994;51.038;16.974;2023-03-22T12:30:53;9.60;;;7.30;;
23634;SDS011;11994;51.038;16.974;2023-03-22T12:36:02;8.50;;;6.30;;
23634;SDS011;11994;51.038;16.974;2023-03-22T12:38:44;7.50;;;6.00;;
23634;SDS011;11994;51.038;16.974;2023-03-22T12:41:14;9.30;;;6.40;;
23634;SDS011;11994;51.038;16.974;2023-03-22T12:46:27;8.40;;;5.60;;
23634;SDS011;11994;51.038;16.974;2023-03-22T12:49:01;7.60;;;5.80;;
23634;SDS011;11994;51.038;16.974;2023-03-22T12:51:35;7.60;;;5.50;;
23634;SDS011;11994;51.038;16.974;2023-03-22T12:54:01;8.50;;;5.40;;
23634;SDS011;11994;51.038;16.974;2023-03-22T12:59:17;8.00;;;4.90;;
23634;SDS011;11994;51.038;16.974;2023-03-22T13:02:08;7.60;;;5.40;;
23634;SDS011;11994;51.038;16.974;2023-03-22T13:09:51;7.30;;;5.10;;
23634;SDS011;11994;51.038;16.974;2023-03-22T13:22:30;6.20;;;5.00;;
23634;SDS011;11994;51.038;16.974;2023-03-22T13:27:54;12.20;;;4.90;;
23634;SDS011;11994;51.038;16.974;2023-03-22T13:35:51;7.50;;;5.10;;
23634;SDS011;11994;51.038;16.974;2023-03-22T13:38:27;5.00;;;4.50;;
23634;SDS011;11994;51.038;16.974;2023-03-22T13:41:01;7.30;;;4.40;;
23634;SDS011;11994;51.038;16.974;2023-03-22T13:44:01;5.50;;;3.80;;
23634;SDS011;11994;51.038;16.974;2023-03-22T13:59:07;7.30;;;4.40;;
23634;SDS011;11994;51.038;16.974;2023-03-22T14:01:36;5.90;;;4.40;;
23634;SDS011;11994;51.038;16.974;2023-03-22T14:04:09;7.50;;;3.90;;
23634;SDS011;11994;51.038;16.974;2023-03-22T14:06:42;4.60;;;3.20;;
23634;SDS011;11994;51.038;16.974;2023-03-22T14:09:23;5.10;;;3.60;;
23634;SDS011;11994;51.038;16.974;2023-03-22T14:12:02;4.40;;;3.20;;
23634;SDS011;11994;51.038;16.974;2023-03-22T14:14:39;12.80;;;4.40;;
23634;SDS011;11994;51.038;16.974;2023-03-22T14:19:53;8.50;;;3.50;;
23634;SDS011;11994;51.038;16.974;2023-03-22T14:22:25;6.20;;;4.20;;
23634;SDS011;11994;51.038;16.974;2023-03-22T14:24:54;8.10;;;3.40;;
23634;SDS011;11994;51.038;16.974;2023-03-22T14:27:21;6.00;;;3.50;;
23634;SDS011;11994;51.038;16.974;2023-03-22T14:29:48;6.20;;;3.30;;
23634;SDS011;11994;51.038;16.974;2023-03-22T14:32:21;10.80;;;4.00;;
23634;SDS011;11994;51.038;16.974;2023-03-22T14:34:55;5.80;;;2.90;;
23634;SDS011;11994;51.038;16.974;2023-03-22T14:37:24;6.90;;;2.80;;
23634;SDS011;11994;51.038;16.974;2023-03-22T14:39:51;5.20;;;2.90;;
23634;SDS011;11994;51.038;16.974;2023-03-22T14:44:54;4.60;;;2.70;;
23634;SDS011;11994;51.038;16.974;2023-03-22T14:49:57;3.90;;;2.30;;
23634;SDS011;11994;51.038;16.974;2023-03-22T14:52:27;4.90;;;2.30;;
23634;SDS011;11994;51.038;16.974;2023-03-22T14:54:56;6.10;;;2.40;;
23634;SDS011;11994;51.038;16.974;2023-03-22T14:57:27;4.00;;;2.30;;
23634;SDS011;11994;51.038;16.974;2023-03-22T14:59:54;5.50;;;2.40;;
23634;SDS011;11994;51.038;16.974;2023-03-22T15:02:28;5.70;;;2.40;;
23634;SDS011;11994;51.038;16.974;2023-03-22T15:04:59;4.30;;;2.80;;
23634;SDS011;11994;51.038;16.974;2023-03-22T15:07:25;4.10;;;2.40;;
23634;SDS011;11994;51.038;16.974;2023-03-22T15:09:51;8.30;;;3.80;;
23634;SDS011;11994;51.038;16.974;2023-03-22T15:12:16;5.90;;;4.00;;
23634;SDS011;11994;51.038;16.974;2023-03-22T15:14:45;7.90;;;4.60;;
23634;SDS011;11994;51.038;16.974;2023-03-22T15:17:13;9.90;;;3.80;;
23634;SDS011;11994;51.038;16.974;2023-03-22T15:19:42;3.80;;;2.70;;
23634;SDS011;11994;51.038;16.974;2023-03-22T15:22:14;5.90;;;3.20;;
23634;SDS011;11994;51.038;16.974;2023-03-22T15:24:51;5.60;;;2.60;;
23634;SDS011;11994;51.038;16.974;2023-03-22T15:27:22;4.60;;;2.70;;
23634;SDS011;11994;51.038;16.974;2023-03-22T15:29:48;4.40;;;2.50;;
23634;SDS011;11994;51.038;16.974;2023-03-22T15:32:15;4.10;;;2.20;;
23634;SDS011;11994;51.038;16.974;2023-03-22T15:34:46;3.30;;;2.30;;
23634;SDS011;11994;51.038;16.974;2023-03-22T15:37:14;6.10;;;2.50;;
23634;SDS011;11994;51.038;16.974;2023-03-22T15:39:50;5.20;;;2.70;;
23634;SDS011;11994;51.038;16.974;2023-03-22T15:44:56;5.60;;;2.70;;
23634;SDS011;11994;51.038;16.974;2023-03-22T15:47:51;4.20;;;2.50;;
23634;SDS011;11994;51.038;16.974;2023-03-22T15:50:20;4.00;;;2.20;;
23634;SDS011;11994;51.038;16.974;2023-03-22T15:52:48;5.00;;;2.40;;
23634;SDS011;11994;51.038;16.974;2023-03-22T15:55:17;3.70;;;2.10;;
23634;SDS011;11994;51.038;16.974;2023-03-22T16:00:36;5.40;;;2.50;;
23634;SDS011;11994;51.038;16.974;2023-03-22T16:05:31;4.80;;;3.10;;
23634;SDS011;11994;51.038;16.974;2023-03-22T16:07:58;5.40;;;2.50;;
23634;SDS011;11994;51.038;16.974;2023-03-22T16:10:26;4.90;;;2.30;;
23634;SDS011;11994;51.038;16.974;2023-03-22T16:12:53;4.50;;;2.30;;
23634;SDS011;11994;51.038;16.974;2023-03-22T16:15:20;3.40;;;2.00;;
23634;SDS011;11994;51.038;16.974;2023-03-22T16:17:47;3.70;;;2.10;;
23634;SDS011;11994;51.038;16.974;2023-03-22T16:20:13;6.40;;;1.80;;
23634;SDS011;11994;51.038;16.974;2023-03-22T16:22:41;4.20;;;1.70;;
23634;SDS011;11994;51.038;16.974;2023-03-22T16:25:15;4.90;;;2.00;;
23634;SDS011;11994;51.038;16.974;2023-03-22T16:27:43;5.70;;;2.20;;
23634;SDS011;11994;51.038;16.974;2023-03-22T16:30:09;5.90;;;1.90;;
23634;SDS011;11994;51.038;16.974;2023-03-22T16:32:37;6.50;;;2.10;;